Time;durP1;ratioP1;P1;durP2;ratioP2;P2;SDS_P1;SDS_P2;PMS_P1;PMS_P2;Temp;Humidity;BMP_temperature;BMP_pressure;BME280_temperature;BME280_humidity;BME280_pressure;Samples;Min_cycle;Max_cycle;Signal;HPM_P1;HPM_P2
2022/04/12 00:00:22;;;;;;;4.97;2.90;;;;;;;6.33;78.90;96119.41;5038714;28;20201;-68
2022/04/12 00:02:48;;;;;;;8.03;3.63;;;;;;;6.36;79.74;96116.47;5037605;28;20236;-68
2022/04/12 00:05:15;;;;;;;7.07;3.13;;;;;;;6.45;79.80;96112.94;5038342;28;21114;-68
2022/04/12 00:07:44;;;;;;;4.73;2.80;;;;;;;6.20;79.56;96115.56;5038862;28;20229;-68
2022/04/12 00:10:11;;;;;;;6.77;3.10;;;;;;;6.04;80.51;96112.84;5038577;28;20929;-68
2022/04/12 00:12:38;;;;;;;5.93;3.70;;;;;;;6.27;79.81;96109.56;5037526;28;20697;-68
2022/04/12 00:15:06;;;;;;;8.03;3.90;;;;;;;6.29;80.12;96107.63;5038614;28;20224;-68
2022/04/12 00:20:18;;;;;;;6.07;3.47;;;;;;;6.28;79.92;96099.94;5038328;28;20211;-68
2022/04/12 00:22:46;;;;;;;8.30;3.17;;;;;;;6.38;81.11;96095.41;5037655;28;20654;-68
2022/04/12 00:25:13;;;;;;;6.60;3.37;;;;;;;6.11;81.13;96096.38;5037919;28;20201;-68
2022/04/12 00:27:41;;;;;;;10.50;3.90;;;;;;;6.20;82.03;96103.31;5038404;28;20236;-68
2022/04/12 00:30:11;;;;;;;6.77;3.03;;;;;;;6.30;81.34;96093.56;5038464;28;20205;-68
2022/04/12 00:32:39;;;;;;;8.20;3.70;;;;;;;6.04;79.65;96092.72;5037286;28;20201;-68
2022/04/12 00:35:06;;;;;;;8.93;3.50;;;;;;;6.13;78.81;96093.59;5038066;28;20205;-67
2022/04/12 00:37:32;;;;;;;6.83;3.50;;;;;;;6.15;79.42;96096.91;5038272;28;20244;-68
2022/04/12 00:40:00;;;;;;;6.20;3.20;;;;;;;6.26;79.99;96094.84;5038153;28;20906;-68
2022/04/12 00:42:26;;;;;;;7.60;3.60;;;;;;;6.11;79.87;96099.00;5037191;28;20233;-68
2022/04/12 00:44:53;;;;;;;9.43;4.20;;;;;;;6.12;79.70;96100.66;5038001;28;20197;-68
2022/04/12 00:47:19;;;;;;;5.83;3.43;;;;;;;6.16;79.96;96099.34;5037606;28;20244;-68
2022/04/12 00:49:46;;;;;;;6.80;3.60;;;;;;;6.27;80.87;96101.69;5037579;28;20205;-68
2022/04/12 00:52:12;;;;;;;8.57;3.57;;;;;;;6.24;80.53;96094.16;5037464;28;20666;-68
2022/04/12 00:54:39;;;;;;;8.23;3.60;;;;;;;6.40;79.02;96083.81;5037455;28;20212;-68
2022/04/12 00:57:07;;;;;;;7.90;3.73;;;;;;;6.36;78.82;96092.13;5037575;28;20233;-68
2022/04/12 00:59:34;;;;;;;9.53;3.33;;;;;;;6.21;78.74;96097.09;5037844;28;20883;-68
2022/04/12 01:02:02;;;;;;;7.43;3.57;;;;;;;6.38;79.64;96098.84;5037778;28;20760;-68
2022/04/12 01:04:29;;;;;;;6.20;3.13;;;;;;;6.06;80.35;96096.00;5035749;28;20597;-68
2022/04/12 01:06:55;;;;;;;7.50;4.17;;;;;;;6.05;81.13;96094.38;5037156;28;20228;-68
2022/04/12 01:09:22;;;;;;;6.50;3.57;;;;;;;5.89;81.75;96096.03;5038590;28;20605;-68
2022/04/12 01:11:48;;;;;;;8.80;3.83;;;;;;;6.03;81.48;96099.91;5037251;28;20205;-68
2022/04/12 01:14:16;;;;;;;8.00;3.60;;;;;;;6.25;81.01;96092.38;5036011;28;20247;-68
2022/04/12 01:16:43;;;;;;;7.97;3.27;;;;;;;6.07;80.44;96095.06;5037878;28;20220;-68
2022/04/12 01:19:09;;;;;;;7.93;4.07;;;;;;;6.16;80.04;96086.28;5037635;28;20216;-68
2022/04/12 01:21:41;;;;;;;5.47;3.07;;;;;;;6.26;78.31;96092.25;5036936;28;20208;-68
2022/04/12 01:24:09;;;;;;;8.77;3.77;;;;;;;6.26;79.13;96091.41;5036244;28;20232;-68
2022/04/12 01:26:35;;;;;;;4.90;2.60;;;;;;;6.10;78.71;96097.34;5037155;28;20248;-68
2022/04/12 01:29:01;;;;;;;9.80;4.07;;;;;;;6.06;80.02;96093.41;5036970;28;20576;-68
2022/04/12 01:31:28;;;;;;;5.83;3.03;;;;;;;6.09;78.75;96103.53;5036923;28;20212;-68
2022/04/12 01:33:54;;;;;;;8.07;3.73;;;;;;;6.10;79.28;96093.91;5036439;28;20217;-68
2022/04/12 01:36:21;;;;;;;10.03;4.10;;;;;;;5.92;79.73;96093.16;5036960;28;20225;-68
2022/04/12 01:38:47;;;;;;;11.37;4.43;;;;;;;5.94;80.36;96096.41;5036593;28;20204;-68
2022/04/12 01:41:15;;;;;;;7.93;3.80;;;;;;;5.97;80.95;96097.91;5037265;28;20216;-68
2022/04/12 01:43:42;;;;;;;9.77;4.27;;;;;;;5.87;80.89;96097.16;5035613;28;20255;-68
2022/04/12 01:46:08;;;;;;;6.33;3.77;;;;;;;6.02;79.98;96108.72;5036735;28;20216;-68
2022/04/12 01:48:34;;;;;;;5.37;3.30;;;;;;;5.97;78.85;96101.34;5037042;28;20216;-68
2022/04/12 01:51:01;;;;;;;11.57;3.50;;;;;;;5.75;78.91;96095.75;5037098;28;20208;-67
2022/04/12 01:53:27;;;;;;;7.33;3.67;;;;;;;5.69;79.82;96093.72;5036098;28;20235;-68
2022/04/12 01:55:54;;;;;;;7.97;3.63;;;;;;;5.60;79.43;96092.00;5036731;28;20215;-68
2022/04/12 01:58:22;;;;;;;7.00;3.60;;;;;;;5.60;82.01;96090.25;5037047;28;20235;-68
2022/04/12 02:00:48;;;;;;;6.77;3.50;;;;;;;5.45;82.85;96096.16;5036672;28;20197;-67
2022/04/12 02:03:15;;;;;;;6.63;3.20;;;;;;;5.13;81.45;96094.97;5035970;28;20232;-68
2022/04/12 02:05:41;;;;;;;7.10;3.40;;;;;;;5.35;81.27;96092.78;5036341;28;20217;-68
2022/04/12 02:08:08;;;;;;;8.30;3.83;;;;;;;5.43;81.15;96095.47;5036622;28;20228;-67
2022/04/12 02:10:35;;;;;;;7.10;4.00;;;;;;;5.58;82.04;96100.00;5036328;28;20237;-68
2022/04/12 02:13:01;;;;;;;6.43;3.27;;;;;;;5.70;82.41;96096.22;5035935;28;20200;-68
2022/04/12 02:15:29;;;;;;;9.63;3.80;;;;;;;5.83;82.61;96098.44;5036105;28;20205;-68
2022/04/12 02:17:55;;;;;;;6.00;3.50;;;;;;;5.36;81.94;96099.66;5040100;28;20232;-68
2022/04/12 02:20:22;;;;;;;11.57;3.60;;;;;;;5.31;81.18;96096.66;5041223;28;20724;-68
2022/04/12 02:22:48;;;;;;;7.63;3.50;;;;;;;5.43;82.52;96100.69;5039984;28;20200;-68
2022/04/12 02:25:15;;;;;;;8.27;3.53;;;;;;;5.37;82.52;96096.03;5040224;28;20205;-68
2022/04/12 02:27:41;;;;;;;8.30;4.43;;;;;;;5.51;81.92;96098.13;5040271;28;20224;-68
2022/04/12 02:30:09;;;;;;;8.50;4.27;;;;;;;5.67;81.79;96098.28;5040884;28;20901;-68
2022/04/12 02:32:37;;;;;;;9.13;3.67;;;;;;;5.74;81.85;96094.09;5036367;28;20204;-68
2022/04/12 02:35:04;;;;;;;8.90;3.83;;;;;;;5.58;81.35;96092.16;5040051;28;20193;-68
2022/04/12 02:37:30;;;;;;;6.37;3.20;;;;;;;5.39;81.59;96086.28;5039958;28;20319;-68
2022/04/12 02:39:57;;;;;;;11.00;4.00;;;;;;;5.43;80.61;96082.38;5040490;28;20857;-68
2022/04/12 02:42:23;;;;;;;11.43;4.37;;;;;;;5.45;80.50;96088.31;5039490;28;20213;-68
2022/04/12 02:44:50;;;;;;;6.07;3.37;;;;;;;5.40;80.60;96087.94;5040093;28;20220;-68
2022/04/12 02:47:16;;;;;;;8.07;3.23;;;;;;;5.13;81.08;96088.00;5039917;28;20244;-67
2022/04/12 02:49:44;;;;;;;6.73;3.97;;;;;;;5.43;81.85;96078.97;5039875;28;20887;-68
2022/04/12 02:52:11;;;;;;;6.90;3.50;;;;;;;5.31;82.80;96086.22;5039833;28;20209;-68
2022/04/12 02:54:37;;;;;;;8.33;4.40;;;;;;;5.27;83.65;96087.47;5040220;28;20216;-68
2022/04/12 02:57:04;;;;;;;6.73;3.93;;;;;;;5.45;83.61;96077.84;5039906;28;20225;-68
2022/04/12 02:59:31;;;;;;;11.60;4.03;;;;;;;5.47;82.41;96091.56;5039162;28;20214;-68
2022/04/12 03:01:57;;;;;;;6.60;3.27;;;;;;;5.34;82.57;96085.09;5039840;28;20201;-68
2022/04/12 03:04:24;;;;;;;9.00;4.03;;;;;;;5.27;80.20;96071.81;5039013;28;20229;-68
2022/04/12 03:06:51;;;;;;;7.53;3.53;;;;;;;5.48;80.51;96070.50;5039582;28;20693;-68
2022/04/12 03:09:18;;;;;;;8.97;4.07;;;;;;;5.27;81.79;96074.41;5039207;28;20209;-68
2022/04/12 03:11:44;;;;;;;7.20;3.33;;;;;;;5.27;81.22;96069.19;5039643;28;20197;-68
2022/04/12 03:14:11;;;;;;;8.10;4.30;;;;;;;5.26;82.91;96072.78;5039032;28;20212;-68
2022/04/12 03:16:37;;;;;;;10.43;4.57;;;;;;;5.34;83.27;96079.88;5038900;28;20255;-68
2022/04/12 03:19:04;;;;;;;10.10;4.43;;;;;;;5.12;83.96;96078.50;5039781;28;20201;-68
2022/04/12 03:21:30;;;;;;;9.90;4.50;;;;;;;5.21;84.35;96072.41;5039916;28;20205;-68
2022/04/12 03:23:58;;;;;;;10.63;4.87;;;;;;;5.41;84.39;96066.06;5038582;28;20225;-68
2022/04/12 03:26:25;;;;;;;17.73;5.30;;;;;;;5.13;85.12;96067.09;5039209;28;20229;-68
2022/04/12 03:28:51;;;;;;;9.00;4.60;;;;;;;5.31;84.80;96054.03;5038799;28;20213;-68
2022/04/12 03:31:18;;;;;;;13.50;4.67;;;;;;;5.32;83.94;96060.91;5038886;28;20673;-68
2022/04/12 03:33:46;;;;;;;9.80;4.53;;;;;;;5.40;83.16;96063.56;5038338;28;20197;-68
2022/04/12 03:36:12;;;;;;;10.53;4.70;;;;;;;5.37;83.82;96064.69;5039749;28;20208;-68
2022/04/12 03:38:48;;;;;;;10.23;4.40;;;;;;;5.29;83.92;96069.84;5039980;28;20206;-68
2022/04/12 03:41:18;;;;;;;13.23;4.20;;;;;;;5.69;83.56;96072.81;5038825;28;20274;-68
2022/04/12 03:43:45;;;;;;;10.73;4.97;;;;;;;5.31;83.10;96078.38;5037878;28;20294;-68
2022/04/12 03:46:11;;;;;;;8.10;4.43;;;;;;;5.20;81.30;96081.19;5039584;28;20213;-68
2022/04/12 03:48:38;;;;;;;9.33;4.13;;;;;;;5.32;80.88;96084.41;5038647;28;20689;-68
2022/04/12 03:51:04;;;;;;;8.40;3.67;;;;;;;4.90;82.12;96084.16;5038568;28;20700;-68
2022/04/12 03:53:31;;;;;;;8.60;4.30;;;;;;;5.18;80.66;96075.31;5038611;28;20298;-67
2022/04/12 03:55:58;;;;;;;9.30;4.27;;;;;;;5.06;81.74;96078.28;5038466;28;20674;-68
2022/04/12 03:58:26;;;;;;;9.07;4.30;;;;;;;5.26;82.31;96085.03;5038637;28;20240;-67
2022/04/12 04:00:53;;;;;;;12.77;5.47;;;;;;;5.20;82.47;96081.19;5038908;28;20201;-68
2022/04/12 04:03:19;;;;;;;8.57;4.13;;;;;;;5.18;81.00;96085.75;5038024;28;20201;-68
2022/04/12 04:05:46;;;;;;;6.83;3.67;;;;;;;5.15;81.26;96085.22;5038210;28;20201;-67
2022/04/12 04:08:12;;;;;;;5.47;3.17;;;;;;;5.03;81.11;96089.03;5038765;28;20282;-68
2022/04/12 04:10:39;;;;;;;8.50;4.30;;;;;;;4.96;81.10;96086.19;5038661;28;20200;-68
2022/04/12 04:13:08;;;;;;;8.47;3.67;;;;;;;4.89;81.78;96089.53;5037499;28;20205;-68
2022/04/12 04:15:37;;;;;;;7.57;4.07;;;;;;;5.13;80.55;96082.75;5038559;28;20212;-68
2022/04/12 04:18:04;;;;;;;8.20;4.10;;;;;;;4.88;80.56;96086.06;5038818;28;20295;-68
2022/04/12 04:20:30;;;;;;;7.43;3.37;;;;;;;4.72;81.45;96087.66;5038025;28;20205;-68
2022/04/12 04:22:57;;;;;;;7.53;4.33;;;;;;;4.95;80.81;96088.91;5037923;28;20216;-68
2022/04/12 04:25:23;;;;;;;6.60;3.47;;;;;;;4.79;80.22;96087.94;5037871;28;20247;-67
2022/04/12 04:27:50;;;;;;;7.60;4.07;;;;;;;4.82;79.97;96090.25;5038274;28;20608;-68
2022/04/12 04:30:17;;;;;;;8.67;3.17;;;;;;;4.76;80.13;96086.44;5038331;28;20206;-67
2022/04/12 04:32:45;;;;;;;5.33;3.50;;;;;;;4.93;80.45;96081.22;5037362;28;20197;-68
2022/04/12 04:35:12;;;;;;;7.43;3.63;;;;;;;4.67;81.03;96091.69;5038046;28;20212;-67
2022/04/12 04:37:43;;;;;;;9.63;3.70;;;;;;;4.89;80.74;96090.31;5037608;28;20232;-67
2022/04/12 04:40:11;;;;;;;8.10;3.67;;;;;;;4.74;80.51;96088.34;5037360;28;20288;-67
2022/04/12 04:42:37;;;;;;;7.87;3.83;;;;;;;4.62;80.96;96091.28;5037871;28;20227;-67
2022/04/12 04:45:05;;;;;;;5.70;3.83;;;;;;;4.60;80.59;96088.84;5038259;28;20217;-67
2022/04/12 04:47:31;;;;;;;12.13;4.10;;;;;;;4.56;80.24;96094.50;5037164;28;20275;-67
2022/04/12 04:50:01;;;;;;;15.50;4.00;;;;;;;4.73;80.50;96083.28;5038047;28;20519;-67
2022/04/12 04:52:27;;;;;;;10.83;4.03;;;;;;;4.57;81.31;96088.28;5037536;28;20209;-67
2022/04/12 04:54:53;;;;;;;9.17;4.00;;;;;;;4.59;81.56;96089.78;5037524;28;20197;-67
2022/04/12 04:57:20;;;;;;;10.60;4.70;;;;;;;4.71;82.67;96087.81;5037341;28;20605;-67
2022/04/12 04:59:46;;;;;;;8.33;4.40;;;;;;;4.76;83.55;96090.81;5037866;28;20665;-67
2022/04/12 05:02:13;;;;;;;14.63;4.50;;;;;;;4.81;83.90;96092.00;5037437;28;20205;-67
2022/04/12 05:04:39;;;;;;;9.00;4.43;;;;;;;4.92;83.68;96084.81;5036974;28;20231;-66
2022/04/12 05:07:07;;;;;;;9.00;4.20;;;;;;;4.85;84.49;96088.16;5037672;28;20236;-67
2022/04/12 05:09:34;;;;;;;9.50;4.47;;;;;;;4.78;84.87;96081.06;5037516;28;20212;-67
2022/04/12 05:12:00;;;;;;;7.93;4.40;;;;;;;4.85;83.85;96081.16;5037578;28;20197;-67
2022/04/12 05:14:27;;;;;;;7.87;3.97;;;;;;;4.94;83.01;96082.06;5036886;28;20201;-66
2022/04/12 05:16:53;;;;;;;8.70;4.37;;;;;;;5.04;83.32;96082.81;5037312;28;20221;-67
2022/04/12 05:19:20;;;;;;;7.80;4.50;;;;;;;5.07;83.68;96083.34;5037320;28;20212;-67
2022/04/12 05:21:46;;;;;;;10.37;5.23;;;;;;;5.16;83.89;96081.66;5037334;28;20235;-67
2022/04/12 05:24:14;;;;;;;8.03;3.93;;;;;;;5.30;83.65;96084.56;5036604;28;20731;-67
2022/04/12 05:26:40;;;;;;;9.27;4.20;;;;;;;5.18;81.69;96080.53;5036639;28;20225;-67
2022/04/12 05:29:07;;;;;;;8.57;4.73;;;;;;;4.90;82.79;96091.97;5036994;28;20216;-67
2022/04/12 05:31:33;;;;;;;12.03;4.83;;;;;;;5.23;82.07;96090.53;5036184;28;20216;-67
2022/04/12 05:34:00;;;;;;;8.57;4.70;;;;;;;5.11;83.15;96094.31;5036584;28;20208;-67
2022/04/12 05:36:26;;;;;;;9.50;3.97;;;;;;;5.15;82.87;96093.88;5037023;28;20710;-67
2022/04/12 05:38:53;;;;;;;8.17;4.03;;;;;;;5.29;82.88;96103.00;5036979;28;20201;-67
2022/04/12 05:41:20;;;;;;;10.77;4.37;;;;;;;5.74;82.01;96094.94;5037067;28;20587;-67
2022/04/12 05:43:47;;;;;;;10.03;4.30;;;;;;;5.81;82.03;96095.97;5036088;28;20212;-67
2022/04/12 05:46:13;;;;;;;8.90;4.90;;;;;;;5.87;83.32;96100.63;5035901;28;20220;-67
2022/04/12 05:48:40;;;;;;;9.97;4.17;;;;;;;5.91;83.07;96103.75;5036848;28;20212;-67
2022/04/12 05:51:06;;;;;;;10.37;5.00;;;;;;;5.89;83.86;96103.06;5035324;28;20220;-67
2022/04/12 05:53:34;;;;;;;8.67;4.50;;;;;;;5.94;84.27;96106.88;5034823;28;20229;-67
2022/04/12 05:56:00;;;;;;;10.13;4.37;;;;;;;6.19;83.65;96111.31;5037001;28;20310;-67
2022/04/12 05:58:30;;;;;;;9.30;4.47;;;;;;;6.43;83.69;96108.81;5036071;28;20225;-67
2022/04/12 06:00:56;;;;;;;14.17;5.43;;;;;;;6.26;83.30;96118.41;5036521;28;20201;-67
2022/04/12 06:03:23;;;;;;;11.13;4.60;;;;;;;6.41;83.25;96108.97;5035436;28;20205;-67
2022/04/12 06:05:49;;;;;;;16.77;6.53;;;;;;;6.58;83.95;96113.34;5035892;28;20221;-67
2022/04/12 06:08:16;;;;;;;14.83;5.47;;;;;;;6.67;84.49;96105.38;5036103;28;20611;-66
2022/04/12 06:10:42;;;;;;;13.77;5.73;;;;;;;6.94;84.25;96110.41;5036401;28;20216;-65
2022/04/12 06:13:09;;;;;;;10.87;5.40;;;;;;;6.93;84.79;96113.19;5035810;28;20215;-67
2022/04/12 06:15:37;;;;;;;13.17;6.77;;;;;;;7.28;84.20;96122.47;5036284;28;20206;-67
2022/04/12 06:18:03;;;;;;;14.67;6.57;;;;;;;7.29;83.41;96124.13;5036378;28;21096;-68
2022/04/12 06:20:30;;;;;;;13.70;6.63;;;;;;;7.39;82.52;96123.97;5036358;28;20599;-67
2022/04/12 06:22:56;;;;;;;15.53;6.23;;;;;;;7.27;83.04;96123.44;5036133;28;20202;-67
2022/04/12 06:25:23;;;;;;;14.93;5.97;;;;;;;7.18;82.83;96125.38;5036154;28;20321;-67
2022/04/12 06:27:51;;;;;;;10.53;5.97;;;;;;;7.48;81.46;96125.63;5035377;28;20588;-67
2022/04/12 06:30:19;;;;;;;14.57;6.27;;;;;;;7.66;81.06;96124.53;5035609;28;20201;-67
2022/04/12 06:32:47;;;;;;;13.00;5.90;;;;;;;7.89;80.02;96130.75;5034548;28;20288;-67
2022/04/12 06:35:14;;;;;;;12.83;6.40;;;;;;;7.98;80.13;96119.28;5036257;28;20288;-67
2022/04/12 06:37:43;;;;;;;15.17;6.57;;;;;;;8.14;80.17;96114.88;5035492;28;20226;-67
2022/04/12 06:40:11;;;;;;;21.97;8.20;;;;;;;8.07;83.63;96118.28;5035634;28;20680;-67
2022/04/12 06:42:38;;;;;;;18.33;6.77;;;;;;;8.09;83.77;96116.34;5034793;28;20574;-67
2022/04/12 06:45:05;;;;;;;13.33;6.53;;;;;;;8.27;82.91;96117.00;5035802;28;21319;-67
2022/04/12 06:47:33;;;;;;;16.53;7.07;;;;;;;8.44;81.74;96113.38;5036222;28;20245;-67
2022/04/12 06:50:01;;;;;;;15.40;6.53;;;;;;;8.68;81.23;96122.84;5036205;28;20205;-67
2022/04/12 06:52:28;;;;;;;18.43;7.37;;;;;;;8.59;80.06;96120.38;5035036;28;20201;-67
2022/04/12 06:54:54;;;;;;;14.73;6.70;;;;;;;8.69;79.64;96115.78;5036570;28;20201;-67
2022/04/12 06:57:21;;;;;;;16.13;6.90;;;;;;;8.46;82.83;96120.09;5036403;28;20229;-67
2022/04/12 06:59:47;;;;;;;13.73;6.03;;;;;;;8.78;80.48;96110.34;5035451;28;20209;-67
2022/04/12 07:02:13;;;;;;;13.57;6.43;;;;;;;8.70;80.91;96110.34;5036154;28;20209;-67
2022/04/12 07:04:40;;;;;;;13.10;6.33;;;;;;;8.68;81.58;96109.72;5040068;28;20951;-67
2022/04/12 07:07:08;;;;;;;17.13;6.83;;;;;;;9.32;78.52;96104.19;5039103;28;20240;-67
2022/04/12 07:09:34;;;;;;;14.23;6.87;;;;;;;8.80;80.63;96108.34;5039267;28;20221;-67
2022/04/12 07:12:02;;;;;;;14.20;6.97;;;;;;;9.42;77.89;96094.25;5039127;28;20642;-67
2022/04/12 07:14:30;;;;;;;16.30;7.00;;;;;;;9.06;80.09;96103.66;5038543;28;20567;-68
2022/04/12 07:16:57;;;;;;;11.17;6.10;;;;;;;9.24;78.99;96098.97;5037696;28;20320;-67
2022/04/12 07:19:24;;;;;;;16.23;6.00;;;;;;;9.59;77.03;96094.00;5038752;28;20665;-67
2022/04/12 07:21:50;;;;;;;16.07;6.70;;;;;;;9.75;76.01;96101.78;5038275;28;20205;-67
2022/04/12 07:24:18;;;;;;;12.20;6.37;;;;;;;9.71;77.58;96095.22;5037668;28;20612;-67
2022/04/12 07:26:45;;;;;;;17.57;6.93;;;;;;;9.79;75.85;96103.06;5038505;28;20705;-67
2022/04/12 07:29:12;;;;;;;13.43;6.67;;;;;;;9.56;75.79;96102.25;5038696;28;20208;-67
2022/04/12 07:31:38;;;;;;;9.93;5.53;;;;;;;9.67;76.11;96104.47;5038401;28;20209;-67
2022/04/12 07:34:05;;;;;;;16.77;6.43;;;;;;;10.01;76.50;96100.44;5037985;28;20717;-67
2022/04/12 07:36:31;;;;;;;10.57;5.60;;;;;;;10.10;75.28;96107.28;5039075;28;20224;-67
2022/04/12 07:38:58;;;;;;;13.30;6.10;;;;;;;10.28;73.58;96113.06;5038622;28;20201;-67
2022/04/12 07:41:26;;;;;;;12.87;6.37;;;;;;;10.50;74.39;96113.03;5037983;28;20677;-67
2022/04/12 07:43:53;;;;;;;12.23;6.43;;;;;;;10.58;72.57;96107.66;5037861;28;20397;-67
2022/04/12 07:46:19;;;;;;;13.23;5.57;;;;;;;10.50;73.95;96104.28;5038546;28;20484;-67
2022/04/12 07:48:45;;;;;;;11.20;5.67;;;;;;;10.57;72.03;96099.94;5038290;28;20839;-67
2022/04/12 07:51:12;;;;;;;10.67;5.50;;;;;;;10.70;73.20;96100.13;5038232;28;20201;-67
2022/04/12 07:53:38;;;;;;;12.60;5.53;;;;;;;10.76;72.25;96094.16;5037393;28;20205;-67
2022/04/12 07:56:05;;;;;;;11.43;6.13;;;;;;;10.99;71.45;96096.50;5038171;28;20197;-67
2022/04/12 07:58:33;;;;;;;12.50;5.80;;;;;;;11.08;71.64;96092.75;5037979;28;20299;-67
2022/04/12 08:01:00;;;;;;;17.43;6.10;;;;;;;10.97;72.86;96093.25;5038114;28;20206;-67
2022/04/12 08:03:26;;;;;;;14.00;6.03;;;;;;;11.10;71.60;96106.59;5037592;28;20213;-67
2022/04/12 08:05:53;;;;;;;11.83;5.63;;;;;;;11.38;72.48;96097.00;5037636;28;20225;-67
2022/04/12 08:08:20;;;;;;;11.30;5.80;;;;;;;11.27;73.12;96100.09;5038121;28;20229;-67
2022/04/12 08:10:46;;;;;;;12.50;5.20;;;;;;;11.35;71.73;96102.63;5034582;28;20572;-67
2022/04/12 08:13:13;;;;;;;11.57;6.00;;;;;;;11.61;69.99;96097.72;5036891;28;20579;-67
2022/04/12 08:15:40;;;;;;;10.63;5.37;;;;;;;12.09;70.92;96096.97;5037692;28;20204;-67
2022/04/12 08:18:07;;;;;;;10.37;5.27;;;;;;;12.05;70.17;96085.97;5038023;28;20236;-67
2022/04/12 08:20:34;;;;;;;13.50;6.03;;;;;;;11.99;71.13;96088.53;5037292;28;20205;-67
2022/04/12 08:23:02;;;;;;;11.77;5.87;;;;;;;12.16;70.01;96086.28;5036579;28;20197;-67
2022/04/12 08:25:29;;;;;;;10.73;5.23;;;;;;;12.12;72.01;96086.00;5037858;28;20776;-67
2022/04/12 08:27:55;;;;;;;17.23;5.90;;;;;;;12.07;74.52;96088.44;5037086;28;20224;-67
2022/04/12 08:30:22;;;;;;;11.50;5.87;;;;;;;12.31;74.49;96087.00;5037446;28;20745;-67
2022/04/12 08:32:49;;;;;;;14.20;5.73;;;;;;;12.75;71.66;96079.59;5036662;28;20564;-67
2022/04/12 08:35:16;;;;;;;12.53;6.20;;;;;;;12.36;73.65;96075.88;5037467;28;20201;-68
2022/04/12 08:37:43;;;;;;;9.63;5.80;;;;;;;12.74;71.98;96064.78;5037214;28;20232;-68
2022/04/12 08:40:11;;;;;;;11.90;5.67;;;;;;;12.93;70.07;96072.00;5037415;28;20205;-67
2022/04/12 08:42:38;;;;;;;11.87;6.00;;;;;;;13.27;69.15;96066.69;5036781;28;20205;-68
2022/04/12 08:45:07;;;;;;;10.67;5.57;;;;;;;13.53;68.24;96059.66;5037443;28;20225;-67
2022/04/12 08:47:35;;;;;;;10.03;5.43;;;;;;;13.59;65.57;96056.22;5037027;28;20252;-68
2022/04/12 08:50:05;;;;;;;11.20;5.47;;;;;;;14.28;66.91;96056.56;5036794;28;20590;-67
2022/04/12 08:52:32;;;;;;;10.43;5.63;;;;;;;14.26;64.65;96065.75;5036617;28;20205;-68
2022/04/12 08:55:01;;;;;;;11.93;5.18;;;;;;;14.30;63.71;96059.00;5037252;28;20198;-67
2022/04/12 08:57:28;;;;;;;11.70;6.13;;;;;;;14.27;68.71;96062.09;5036627;28;20671;-68
2022/04/12 08:59:55;;;;;;;9.20;5.97;;;;;;;14.12;65.58;96062.25;5037227;28;20227;-68
2022/04/12 09:02:21;;;;;;;13.40;5.72;;;;;;;14.40;65.54;96054.94;5036389;28;20213;-68
2022/04/12 09:04:48;;;;;;;13.00;6.63;;;;;;;14.56;65.24;96059.00;5036296;28;20212;-68
2022/04/12 09:07:16;;;;;;;11.75;6.20;;;;;;;14.25;65.50;96056.97;5036890;28;20225;-68
2022/04/12 09:09:43;;;;;;;13.60;7.07;;;;;;;14.51;66.82;96050.84;5035853;28;20209;-68
2022/04/12 09:12:11;;;;;;;11.80;6.40;;;;;;;14.26;66.80;96057.78;5035492;28;20232;-68
2022/04/12 09:14:39;;;;;;;12.95;6.78;;;;;;;14.25;67.65;96051.66;5036388;28;20209;-68
2022/04/12 09:17:07;;;;;;;15.20;6.25;;;;;;;14.63;65.02;96049.22;5036094;28;20221;-67
2022/04/12 09:19:41;;;;;;;11.32;6.47;;;;;;;14.58;64.93;96051.66;5036457;28;20609;-68
2022/04/12 09:22:11;;;;;;;12.38;6.40;;;;;;;14.46;65.50;96047.97;5036308;28;20716;-68
2022/04/12 09:24:44;;;;;;;13.70;6.38;;;;;;;14.55;65.70;96050.22;5036678;28;20383;-68
2022/04/12 09:27:12;;;;;;;13.23;6.55;;;;;;;15.03;62.52;96044.44;5035196;28;20871;-68
2022/04/12 09:29:44;;;;;;;10.45;6.10;;;;;;;15.10;65.11;96045.22;5036360;28;20292;-68
2022/04/12 09:32:13;;;;;;;12.55;6.70;;;;;;;14.56;66.25;96054.53;5036462;28;20581;-68
2022/04/12 09:34:40;;;;;;;11.80;6.75;;;;;;;15.43;63.31;96052.06;5036947;28;20212;-68
2022/04/12 09:37:17;;;;;;;10.82;6.25;;;;;;;15.35;64.51;96057.63;5036426;28;20575;-68
2022/04/12 09:39:47;;;;;;;13.30;6.28;;;;;;;15.77;60.44;96057.00;5035811;28;20205;-68
2022/04/12 09:42:13;;;;;;;11.68;6.50;;;;;;;15.59;62.59;96048.94;5035760;28;20731;-68
2022/04/12 09:44:40;;;;;;;11.02;6.18;;;;;;;15.44;64.34;96055.50;5035869;28;20212;-68
2022/04/12 09:47:07;;;;;;;10.45;6.25;;;;;;;15.79;63.97;96046.16;5035783;28;20228;-68
2022/04/12 09:49:43;;;;;;;13.35;6.93;;;;;;;16.53;59.78;96046.03;5036197;28;20215;-68
2022/04/12 09:52:11;;;;;;;12.65;6.47;;;;;;;15.93;61.11;96049.31;5035277;28;20204;-68
2022/04/12 09:54:37;;;;;;;14.75;6.72;;;;;;;15.81;60.58;96038.78;5035684;28;20241;-68
2022/04/12 09:57:07;;;;;;;12.00;6.22;;;;;;;16.34;60.25;96032.91;5036201;28;20252;-68
2022/04/12 09:59:34;;;;;;;16.05;6.68;;;;;;;16.34;59.05;96025.75;5035960;28;20304;-68
2022/04/12 10:02:01;;;;;;;11.13;6.45;;;;;;;16.21;62.08;96025.03;5035858;28;20205;-68
2022/04/12 10:04:31;;;;;;;12.20;6.60;;;;;;;16.61;60.33;96009.34;5035696;28;20209;-68
2022/04/12 10:06:58;;;;;;;12.70;6.47;;;;;;;16.53;59.33;96014.13;5035856;28;20229;-68
2022/04/12 10:09:28;;;;;;;13.90;7.40;;;;;;;16.63;61.40;96011.78;5035940;28;20240;-68
2022/04/12 10:11:55;;;;;;;13.05;6.07;;;;;;;16.59;64.36;96006.09;5033439;28;20205;-68
2022/04/12 10:14:24;;;;;;;10.80;6.50;;;;;;;17.12;58.46;95996.53;5035161;28;20205;-68
2022/04/12 10:16:51;;;;;;;9.60;5.57;;;;;;;16.90;58.78;96005.16;5035803;28;20220;-68
2022/04/12 10:19:18;;;;;;;11.85;6.40;;;;;;;17.04;60.71;95999.47;5035798;28;20212;-68
2022/04/12 10:21:44;;;;;;;9.73;5.85;;;;;;;17.11;60.28;96008.22;5035674;28;20202;-68
2022/04/12 10:24:12;;;;;;;12.23;6.13;;;;;;;17.68;57.00;95997.88;5035420;28;20209;-68
2022/04/12 10:26:40;;;;;;;9.05;5.47;;;;;;;17.58;57.15;95994.94;5035666;28;20720;-68
2022/04/12 10:29:07;;;;;;;9.88;5.75;;;;;;;18.03;56.37;95998.78;5035833;28;20205;-68
2022/04/12 10:31:35;;;;;;;11.30;6.20;;;;;;;17.70;56.28;95993.13;5035465;28;20217;-68
2022/04/12 10:34:09;;;;;;;11.32;6.50;;;;;;;18.34;55.15;95994.00;5034556;28;20212;-68
2022/04/12 10:36:56;;;;;;;11.40;6.13;;;;;;;18.24;57.62;95984.94;5035853;28;20249;-68
2022/04/12 10:39:26;;;;;;;9.55;5.93;;;;;;;18.50;57.23;95975.44;5038977;28;20208;-68
2022/04/12 10:41:55;;;;;;;8.60;6.03;;;;;;;18.74;56.88;95974.41;5039101;28;20197;-68
2022/04/12 10:44:25;;;;;;;13.70;5.75;;;;;;;18.66;56.09;95977.44;5038451;28;20212;-68
2022/04/12 10:46:53;;;;;;;9.30;5.65;;;;;;;18.96;54.00;95973.59;5039709;28;20228;-68
2022/04/12 10:49:21;;;;;;;10.18;5.45;;;;;;;18.95;54.82;95976.47;5040014;28;20217;-68
2022/04/12 10:51:56;;;;;;;13.50;5.72;;;;;;;18.76;54.57;95976.84;5039671;28;20204;-68
2022/04/12 10:54:31;;;;;;;8.18;4.90;;;;;;;18.75;55.97;95978.72;5038744;28;20300;-68
2022/04/12 10:57:24;;;;;;;11.32;5.85;;;;;;;19.67;56.83;95971.31;5039604;28;21229;-68
2022/04/12 10:59:52;;;;;;;9.85;5.97;;;;;;;19.59;52.21;95963.69;5038956;28;20263;-68
2022/04/12 11:02:21;;;;;;;11.70;6.05;;;;;;;19.97;52.53;95967.34;5038458;28;20209;-68
2022/04/12 11:04:47;;;;;;;11.18;5.57;;;;;;;20.03;53.05;95966.38;5039001;28;21149;-68
2022/04/12 11:07:35;;;;;;;9.43;5.75;;;;;;;19.57;52.26;95955.88;5039108;28;20240;-68
2022/04/12 11:10:23;;;;;;;9.60;5.05;;;;;;;19.57;52.42;95964.97;5035595;28;20230;-68
2022/04/12 11:12:51;;;;;;;10.65;6.00;;;;;;;19.74;51.79;95967.44;5033899;28;20197;-68
2022/04/12 11:15:22;;;;;;;10.48;5.10;;;;;;;19.98;49.48;95960.94;5039012;28;20264;-68
2022/04/12 11:17:50;;;;;;;10.57;5.47;;;;;;;19.92;49.89;95961.09;5039034;28;20217;-68
2022/04/12 11:20:23;;;;;;;13.23;5.88;;;;;;;19.80;54.43;95960.31;5039120;28;20215;-68
2022/04/12 11:22:57;;;;;;;9.80;5.53;;;;;;;19.66;51.37;95959.78;5038121;28;20205;-68
2022/04/12 11:25:26;;;;;;;9.35;5.45;;;;;;;19.52;50.30;95962.19;5038947;28;20337;-69
2022/04/12 11:27:56;;;;;;;9.57;4.93;;;;;;;19.77;51.19;95950.91;5038448;28;20316;-69
2022/04/12 11:30:24;;;;;;;7.80;4.97;;;;;;;19.91;52.78;95954.13;5038641;28;20224;-68
2022/04/12 11:32:53;;;;;;;9.73;5.10;;;;;;;20.38;51.99;95948.25;5038295;28;20618;-68
2022/04/12 11:35:20;;;;;;;12.73;4.93;;;;;;;20.28;49.48;95948.06;5038661;28;20583;-68
2022/04/12 11:37:48;;;;;;;7.20;4.60;;;;;;;20.65;48.47;95946.50;5038398;28;20220;-68